Skip Navigation LinksHome page > Weather > Current weather Skip Navigation Links

Current Weather

Heathrow, London

For information only: do not use for flight planning or navigation.
Latest weather
Observation time Monday, April 21, 2014 8:50 AM BST
Local time Monday, April 21, 2014 9:08 AM BST
Flight conditions Marginal Visual Meteorological Conditions
Winds
Wind direction variable
Wind speed 3 mph
Visibility 3.7 mi.
Sky condition
Ceiling unlimited
Temperature 52°F
Dewpoint 46°F
Altimeter 29.71 in.Hg
Derived measurements
Relative humidity 82%
Density altitude -77 ft.
Remarks
No significant changes expected in the next two hours.
METAR EGLL 210750Z VRB03KT 6000 NSC 11/08 Q1006 NOSIG

Settings

Location code

InnerDrive.Weather 4.0.4869.0 Release CLR 4.0.30319.18449
Copyright ©2013 Inner Drive Technology. All rights reserved. Portions Copyright ©1986-2013 David Braverman.

Find weather

Site navigation


Skip Navigation Links

Place info

Page info

PayPal - The safer, easier way to pay online!

Return home.

Copyright ©2014 Inner Drive Technology. Purveyors of fine, hand-crafted computer software. Page printed 2014-04-21T08:08:07 UTC.